sensor_id;sensor_type;location;lat;lon;timestamp;temperature;humidity
67379;DHT22;54262;44.642;-0.974;2023-05-14T00:01:27;15.30;99.90
67379;DHT22;54262;44.642;-0.974;2023-05-14T00:03:53;15.60;99.90
67379;DHT22;54262;44.642;-0.974;2023-05-14T00:06:19;14.80;99.90
67379;DHT22;54262;44.642;-0.974;2023-05-14T00:08:45;14.40;99.90
67379;DHT22;54262;44.642;-0.974;2023-05-14T00:11:10;14.20;99.90
67379;DHT22;54262;44.642;-0.974;2023-05-14T00:13:36;14.20;99.90
67379;DHT22;54262;44.642;-0.974;2023-05-14T00:16:02;14.30;99.90
67379;DHT22;54262;44.642;-0.974;2023-05-14T00:18:27;14.30;99.90
67379;DHT22;54262;44.642;-0.974;2023-05-14T00:20:53;14.20;99.90
67379;DHT22;54262;44.642;-0.974;2023-05-14T00:23:22;14.20;99.90
67379;DHT22;54262;44.642;-0.974;2023-05-14T00:25:48;14.10;99.90
67379;DHT22;54262;44.642;-0.974;2023-05-14T00:28:14;14.00;99.90
67379;DHT22;54262;44.642;-0.974;2023-05-14T00:30:40;14.00;99.90
67379;DHT22;54262;44.642;-0.974;2023-05-14T00:33:06;14.00;99.90
67379;DHT22;54262;44.642;-0.974;2023-05-14T00:35:32;13.90;99.90
67379;DHT22;54262;44.642;-0.974;2023-05-14T00:38:00;13.80;99.90
67379;DHT22;54262;44.642;-0.974;2023-05-14T00:40:26;13.80;99.90
67379;DHT22;54262;44.642;-0.974;2023-05-14T00:42:52;14.30;99.90
67379;DHT22;54262;44.642;-0.974;2023-05-14T00:45:18;14.00;99.90
67379;DHT22;54262;44.642;-0.974;2023-05-14T00:47:44;13.90;99.90
67379;DHT22;54262;44.642;-0.974;2023-05-14T00:50:10;14.00;99.90
67379;DHT22;54262;44.642;-0.974;2023-05-14T00:52:39;14.00;99.90
67379;DHT22;54262;44.642;-0.974;2023-05-14T00:55:08;13.80;99.90
67379;DHT22;54262;44.642;-0.974;2023-05-14T00:57:36;13.70;99.90
67379;DHT22;54262;44.642;-0.974;2023-05-14T01:00:02;13.70;99.90
67379;DHT22;54262;44.642;-0.974;2023-05-14T01:02:28;13.70;99.90
67379;DHT22;54262;44.642;-0.974;2023-05-14T01:04:55;13.40;99.90
67379;DHT22;54262;44.642;-0.974;2023-05-14T01:07:38;13.50;99.90
67379;DHT22;54262;44.642;-0.974;2023-05-14T01:10:19;13.40;99.90
67379;DHT22;54262;44.642;-0.974;2023-05-14T01:13:11;13.20;99.90
67379;DHT22;54262;44.642;-0.974;2023-05-14T01:15:38;13.60;99.90
67379;DHT22;54262;44.642;-0.974;2023-05-14T01:18:10;13.30;99.90
67379;DHT22;54262;44.642;-0.974;2023-05-14T01:20:37;13.10;99.90
67379;DHT22;54262;44.642;-0.974;2023-05-14T01:23:03;13.10;99.90
67379;DHT22;54262;44.642;-0.974;2023-05-14T01:25:30;13.40;99.90
67379;DHT22;54262;44.642;-0.974;2023-05-14T01:30:43;13.30;99.90
67379;DHT22;54262;44.642;-0.974;2023-05-14T01:33:12;13.30;99.90
67379;DHT22;54262;44.642;-0.974;2023-05-14T01:35:38;13.10;99.90
67379;DHT22;54262;44.642;-0.974;2023-05-14T01:38:08;13.40;99.90
67379;DHT22;54262;44.642;-0.974;2023-05-14T01:40:36;13.80;99.90
67379;DHT22;54262;44.642;-0.974;2023-05-14T01:43:03;13.80;99.90
67379;DHT22;54262;44.642;-0.974;2023-05-14T01:45:29;13.90;99.90
67379;DHT22;54262;44.642;-0.974;2023-05-14T01:47:55;14.10;99.90
67379;DHT22;54262;44.642;-0.974;2023-05-14T01:50:21;14.20;99.90
67379;DHT22;54262;44.642;-0.974;2023-05-14T01:52:47;14.40;99.90
67379;DHT22;54262;44.642;-0.974;2023-05-14T01:55:15;14.70;99.90
67379;DHT22;54262;44.642;-0.974;2023-05-14T01:57:42;14.80;99.90
67379;DHT22;54262;44.642;-0.974;2023-05-14T02:00:08;14.80;99.90
67379;DHT22;54262;44.642;-0.974;2023-05-14T02:02:34;14.80;99.90
67379;DHT22;54262;44.642;-0.974;2023-05-14T02:05:00;14.50;99.90
67379;DHT22;54262;44.642;-0.974;2023-05-14T02:07:25;14.20;99.90
67379;DHT22;54262;44.642;-0.974;2023-05-14T02:09:51;14.40;99.90
67379;DHT22;54262;44.642;-0.974;2023-05-14T02:12:16;14.60;99.90
67379;DHT22;54262;44.642;-0.974;2023-05-14T02:14:42;15.70;99.90
67379;DHT22;54262;44.642;-0.974;2023-05-14T02:17:08;16.20;99.90
67379;DHT22;54262;44.642;-0.974;2023-05-14T02:19:33;15.80;99.90
67379;DHT22;54262;44.642;-0.974;2023-05-14T02:21:59;14.80;99.90
67379;DHT22;54262;44.642;-0.974;2023-05-14T02:24:25;14.80;99.90
67379;DHT22;54262;44.642;-0.974;2023-05-14T02:26:51;15.30;99.90
67379;DHT22;54262;44.642;-0.974;2023-05-14T02:29:17;14.80;99.90
67379;DHT22;54262;44.642;-0.974;2023-05-14T02:31:42;14.40;99.90
67379;DHT22;54262;44.642;-0.974;2023-05-14T02:34:08;14.50;99.90
67379;DHT22;54262;44.642;-0.974;2023-05-14T02:36:34;13.80;99.90
67379;DHT22;54262;44.642;-0.974;2023-05-14T02:39:00;13.30;99.90
67379;DHT22;54262;44.642;-0.974;2023-05-14T02:41:26;12.90;99.90
67379;DHT22;54262;44.642;-0.974;2023-05-14T02:43:52;12.70;99.90
67379;DHT22;54262;44.642;-0.974;2023-05-14T02:46:18;12.50;99.90
67379;DHT22;54262;44.642;-0.974;2023-05-14T02:48:44;12.40;99.90
67379;DHT22;54262;44.642;-0.974;2023-05-14T02:51:09;12.50;99.90
67379;DHT22;54262;44.642;-0.974;2023-05-14T02:53:35;12.40;99.90
67379;DHT22;54262;44.642;-0.974;2023-05-14T02:56:03;12.40;99.90
67379;DHT22;54262;44.642;-0.974;2023-05-14T02:58:32;12.30;99.90
67379;DHT22;54262;44.642;-0.974;2023-05-14T03:00:58;12.40;99.90
67379;DHT22;54262;44.642;-0.974;2023-05-14T03:03:24;12.40;99.90
67379;DHT22;54262;44.642;-0.974;2023-05-14T03:05:49;12.20;99.90
67379;DHT22;54262;44.642;-0.974;2023-05-14T03:08:15;12.20;99.90
67379;DHT22;54262;44.642;-0.974;2023-05-14T03:10:41;12.10;99.90
67379;DHT22;54262;44.642;-0.974;2023-05-14T03:13:06;12.30;99.90
67379;DHT22;54262;44.642;-0.974;2023-05-14T03:15:32;12.20;99.90
67379;DHT22;54262;44.642;-0.974;2023-05-14T03:17:58;12.10;99.90
67379;DHT22;54262;44.642;-0.974;2023-05-14T03:20:24;12.10;99.90
67379;DHT22;54262;44.642;-0.974;2023-05-14T03:22:50;12.10;99.90
67379;DHT22;54262;44.642;-0.974;2023-05-14T03:25:16;12.00;99.90
67379;DHT22;54262;44.642;-0.974;2023-05-14T03:27:42;12.00;99.90
67379;DHT22;54262;44.642;-0.974;2023-05-14T03:30:08;12.00;99.90
67379;DHT22;54262;44.642;-0.974;2023-05-14T03:32:34;11.90;99.90
67379;DHT22;54262;44.642;-0.974;2023-05-14T03:34:59;11.90;99.90
67379;DHT22;54262;44.642;-0.974;2023-05-14T03:37:25;11.80;99.90
67379;DHT22;54262;44.642;-0.974;2023-05-14T03:39:50;11.70;99.90
67379;DHT22;54262;44.642;-0.974;2023-05-14T03:42:16;11.80;99.90
67379;DHT22;54262;44.642;-0.974;2023-05-14T03:44:42;11.70;99.90
67379;DHT22;54262;44.642;-0.974;2023-05-14T03:47:07;11.60;99.90
67379;DHT22;54262;44.642;-0.974;2023-05-14T03:49:33;11.60;99.90
67379;DHT22;54262;44.642;-0.974;2023-05-14T03:51:59;11.50;99.90
67379;DHT22;54262;44.642;-0.974;2023-05-14T03:54:25;11.50;99.90
67379;DHT22;54262;44.642;-0.974;2023-05-14T03:56:53;11.40;99.90
67379;DHT22;54262;44.642;-0.974;2023-05-14T03:59:21;11.40;99.90
67379;DHT22;54262;44.642;-0.974;2023-05-14T04:01:47;11.30;99.90
67379;DHT22;54262;44.642;-0.974;2023-05-14T04:04:12;11.30;99.90
67379;DHT22;54262;44.642;-0.974;2023-05-14T04:06:38;11.30;99.90
67379;DHT22;54262;44.642;-0.974;2023-05-14T04:09:04;11.20;99.90
67379;DHT22;54262;44.642;-0.974;2023-05-14T04:11:29;11.20;99.90
67379;DHT22;54262;44.642;-0.974;2023-05-14T04:13:55;11.30;99.90
67379;DHT22;54262;44.642;-0.974;2023-05-14T04:16:21;11.30;99.90
67379;DHT22;54262;44.642;-0.974;2023-05-14T04:18:46;11.30;99.90
67379;DHT22;54262;44.642;-0.974;2023-05-14T04:21:12;11.20;99.90
67379;DHT22;54262;44.642;-0.974;2023-05-14T04:23:38;11.20;99.90
67379;DHT22;54262;44.642;-0.974;2023-05-14T04:26:03;11.10;99.90
67379;DHT22;54262;44.642;-0.974;2023-05-14T04:28:29;11.10;99.90
67379;DHT22;54262;44.642;-0.974;2023-05-14T04:30:55;11.00;99.90
67379;DHT22;54262;44.642;-0.974;2023-05-14T04:33:21;10.90;99.90
67379;DHT22;54262;44.642;-0.974;2023-05-14T04:35:46;10.90;99.90
67379;DHT22;54262;44.642;-0.974;2023-05-14T04:38:12;10.90;99.90
67379;DHT22;54262;44.642;-0.974;2023-05-14T04:40:39;10.80;99.90
67379;DHT22;54262;44.642;-0.974;2023-05-14T04:43:06;10.80;99.90
67379;DHT22;54262;44.642;-0.974;2023-05-14T04:45:32;10.70;99.90
67379;DHT22;54262;44.642;-0.974;2023-05-14T04:47:58;10.70;99.90
67379;DHT22;54262;44.642;-0.974;2023-05-14T04:50:24;10.80;99.90
67379;DHT22;54262;44.642;-0.974;2023-05-14T04:52:50;10.80;99.90
67379;DHT22;54262;44.642;-0.974;2023-05-14T04:55:15;11.00;99.90
67379;DHT22;54262;44.642;-0.974;2023-05-14T04:57:43;11.10;99.90
67379;DHT22;54262;44.642;-0.974;2023-05-14T05:00:11;11.10;99.90
67379;DHT22;54262;44.642;-0.974;2023-05-14T05:02:37;11.10;99.90
67379;DHT22;54262;44.642;-0.974;2023-05-14T05:05:03;11.00;99.90
67379;DHT22;54262;44.642;-0.974;2023-05-14T05:07:29;11.00;99.90
67379;DHT22;54262;44.642;-0.974;2023-05-14T05:09:54;11.00;99.90
67379;DHT22;54262;44.642;-0.974;2023-05-14T05:12:20;11.10;99.90
67379;DHT22;54262;44.642;-0.974;2023-05-14T05:14:46;11.10;99.90
67379;DHT22;54262;44.642;-0.974;2023-05-14T05:17:11;11.20;99.90
67379;DHT22;54262;44.642;-0.974;2023-05-14T05:19:37;11.10;99.90
67379;DHT22;54262;44.642;-0.974;2023-05-14T05:22:03;11.20;99.90
67379;DHT22;54262;44.642;-0.974;2023-05-14T05:24:29;11.30;99.90
67379;DHT22;54262;44.642;-0.974;2023-05-14T05:26:55;11.90;99.90
67379;DHT22;54262;44.642;-0.974;2023-05-14T05:29:21;12.60;99.90
67379;DHT22;54262;44.642;-0.974;2023-05-14T05:31:48;12.50;99.90
67379;DHT22;54262;44.642;-0.974;2023-05-14T05:34:13;12.80;99.90
67379;DHT22;54262;44.642;-0.974;2023-05-14T05:36:39;13.30;99.90
67379;DHT22;54262;44.642;-0.974;2023-05-14T05:39:05;13.20;99.90
67379;DHT22;54262;44.642;-0.974;2023-05-14T05:41:30;13.10;99.90
67379;DHT22;54262;44.642;-0.974;2023-05-14T05:43:56;12.80;99.90
67379;DHT22;54262;44.642;-0.974;2023-05-14T05:46:22;12.80;99.90
67379;DHT22;54262;44.642;-0.974;2023-05-14T05:48:47;12.50;99.90
67379;DHT22;54262;44.642;-0.974;2023-05-14T05:51:13;12.40;99.90
67379;DHT22;54262;44.642;-0.974;2023-05-14T05:53:38;12.20;99.90
67379;DHT22;54262;44.642;-0.974;2023-05-14T05:56:05;12.10;99.90
67379;DHT22;54262;44.642;-0.974;2023-05-14T05:58:33;12.10;99.90
67379;DHT22;54262;44.642;-0.974;2023-05-14T06:01:01;12.20;99.90
67379;DHT22;54262;44.642;-0.974;2023-05-14T06:03:26;12.30;99.90
67379;DHT22;54262;44.642;-0.974;2023-05-14T06:05:52;12.40;99.90
67379;DHT22;54262;44.642;-0.974;2023-05-14T06:08:18;12.40;99.90
67379;DHT22;54262;44.642;-0.974;2023-05-14T06:10:44;12.50;99.90
67379;DHT22;54262;44.642;-0.974;2023-05-14T06:13:10;12.50;99.90
67379;DHT22;54262;44.642;-0.974;2023-05-14T06:15:36;12.80;99.90
67379;DHT22;54262;44.642;-0.974;2023-05-14T06:18:02;13.10;99.90
67379;DHT22;54262;44.642;-0.974;2023-05-14T06:20:27;13.50;99.90
67379;DHT22;54262;44.642;-0.974;2023-05-14T06:22:53;13.70;99.90
67379;DHT22;54262;44.642;-0.974;2023-05-14T06:25:19;13.90;99.90
67379;DHT22;54262;44.642;-0.974;2023-05-14T06:27:44;14.20;99.90
67379;DHT22;54262;44.642;-0.974;2023-05-14T06:30:10;14.70;99.90
67379;DHT22;54262;44.642;-0.974;2023-05-14T06:32:36;14.70;99.90
67379;DHT22;54262;44.642;-0.974;2023-05-14T06:35:02;15.40;99.90
67379;DHT22;54262;44.642;-0.974;2023-05-14T06:37:28;15.80;99.90
67379;DHT22;54262;44.642;-0.974;2023-05-14T06:39:54;15.50;99.90
67379;DHT22;54262;44.642;-0.974;2023-05-14T06:42:19;15.30;99.90
67379;DHT22;54262;44.642;-0.974;2023-05-14T06:44:45;15.30;99.90
67379;DHT22;54262;44.642;-0.974;2023-05-14T06:47:11;15.50;99.90
67379;DHT22;54262;44.642;-0.974;2023-05-14T06:49:36;16.00;99.90
67379;DHT22;54262;44.642;-0.974;2023-05-14T06:52:02;15.90;99.90
67379;DHT22;54262;44.642;-0.974;2023-05-14T06:54:28;15.90;99.90
67379;DHT22;54262;44.642;-0.974;2023-05-14T06:56:54;16.50;99.90
67379;DHT22;54262;44.642;-0.974;2023-05-14T06:59:22;16.90;99.90
67379;DHT22;54262;44.642;-0.974;2023-05-14T07:01:50;16.50;99.90
67379;DHT22;54262;44.642;-0.974;2023-05-14T07:04:16;16.80;99.90
67379;DHT22;54262;44.642;-0.974;2023-05-14T07:06:41;16.60;99.90
67379;DHT22;54262;44.642;-0.974;2023-05-14T07:09:07;17.20;99.90
67379;DHT22;54262;44.642;-0.974;2023-05-14T07:11:33;17.50;99.90
67379;DHT22;54262;44.642;-0.974;2023-05-14T07:13:59;17.50;99.90
67379;DHT22;54262;44.642;-0.974;2023-05-14T07:16:25;17.70;99.90
67379;DHT22;54262;44.642;-0.974;2023-05-14T07:18:51;17.80;99.90
67379;DHT22;54262;44.642;-0.974;2023-05-14T07:21:16;17.90;99.90
67379;DHT22;54262;44.642;-0.974;2023-05-14T07:23:42;18.10;99.90
67379;DHT22;54262;44.642;-0.974;2023-05-14T07:26:08;18.10;99.90
67379;DHT22;54262;44.642;-0.974;2023-05-14T07:28:34;17.80;99.90
67379;DHT22;54262;44.642;-0.974;2023-05-14T07:31:00;17.80;99.90
67379;DHT22;54262;44.642;-0.974;2023-05-14T07:33:26;17.90;99.90
67379;DHT22;54262;44.642;-0.974;2023-05-14T07:35:52;18.00;99.90
67379;DHT22;54262;44.642;-0.974;2023-05-14T07:38:19;18.20;99.90
67379;DHT22;54262;44.642;-0.974;2023-05-14T07:40:45;17.90;99.90
67379;DHT22;54262;44.642;-0.974;2023-05-14T07:43:10;17.00;99.90
67379;DHT22;54262;44.642;-0.974;2023-05-14T07:45:37;16.60;99.90
67379;DHT22;54262;44.642;-0.974;2023-05-14T07:48:03;17.30;99.90
67379;DHT22;54262;44.642;-0.974;2023-05-14T07:50:29;17.40;99.90
67379;DHT22;54262;44.642;-0.974;2023-05-14T07:52:55;17.40;99.90
67379;DHT22;54262;44.642;-0.974;2023-05-14T07:55:21;17.20;99.90
67379;DHT22;54262;44.642;-0.974;2023-05-14T07:57:46;17.30;99.90
67379;DHT22;54262;44.642;-0.974;2023-05-14T08:00:15;18.00;99.90
67379;DHT22;54262;44.642;-0.974;2023-05-14T08:02:43;18.10;99.90
67379;DHT22;54262;44.642;-0.974;2023-05-14T08:05:09;18.00;99.90
67379;DHT22;54262;44.642;-0.974;2023-05-14T08:07:35;17.60;99.90
67379;DHT22;54262;44.642;-0.974;2023-05-14T08:10:00;17.20;99.90
67379;DHT22;54262;44.642;-0.974;2023-05-14T08:12:26;17.20;99.90
67379;DHT22;54262;44.642;-0.974;2023-05-14T08:14:53;17.30;99.90
67379;DHT22;54262;44.642;-0.974;2023-05-14T08:17:18;17.30;99.90
67379;DHT22;54262;44.642;-0.974;2023-05-14T08:19:44;17.50;99.90
67379;DHT22;54262;44.642;-0.974;2023-05-14T08:22:10;17.80;99.90
67379;DHT22;54262;44.642;-0.974;2023-05-14T08:24:35;18.30;99.90
67379;DHT22;54262;44.642;-0.974;2023-05-14T08:27:01;18.20;99.90
67379;DHT22;54262;44.642;-0.974;2023-05-14T08:29:27;18.00;99.90
67379;DHT22;54262;44.642;-0.974;2023-05-14T08:31:53;18.30;99.90
67379;DHT22;54262;44.642;-0.974;2023-05-14T08:34:18;18.50;99.90
67379;DHT22;54262;44.642;-0.974;2023-05-14T08:36:44;18.60;99.90
67379;DHT22;54262;44.642;-0.974;2023-05-14T08:39:10;18.70;99.90
67379;DHT22;54262;44.642;-0.974;2023-05-14T08:41:35;18.80;99.90
67379;DHT22;54262;44.642;-0.974;2023-05-14T08:44:19;18.20;99.90
67379;DHT22;54262;44.642;-0.974;2023-05-14T08:46:45;18.20;99.90
67379;DHT22;54262;44.642;-0.974;2023-05-14T08:51:44;17.60;99.90
67379;DHT22;54262;44.642;-0.974;2023-05-14T08:54:14;17.60;99.90
67379;DHT22;54262;44.642;-0.974;2023-05-14T08:56:43;17.90;99.90
67379;DHT22;54262;44.642;-0.974;2023-05-14T08:59:10;17.90;99.90
67379;DHT22;54262;44.642;-0.974;2023-05-14T09:01:40;18.40;99.90
67379;DHT22;54262;44.642;-0.974;2023-05-14T09:04:13;18.90;99.90
67379;DHT22;54262;44.642;-0.974;2023-05-14T09:06:41;18.80;99.90
67379;DHT22;54262;44.642;-0.974;2023-05-14T09:09:08;19.20;99.90
67379;DHT22;54262;44.642;-0.974;2023-05-14T09:11:40;19.30;99.90
67379;DHT22;54262;44.642;-0.974;2023-05-14T09:14:06;19.20;99.90
67379;DHT22;54262;44.642;-0.974;2023-05-14T09:16:31;19.50;99.90
67379;DHT22;54262;44.642;-0.974;2023-05-14T09:18:57;19.60;99.90
67379;DHT22;54262;44.642;-0.974;2023-05-14T09:21:24;19.20;99.90
67379;DHT22;54262;44.642;-0.974;2023-05-14T09:23:53;19.20;99.90
67379;DHT22;54262;44.642;-0.974;2023-05-14T09:26:22;19.50;99.90
67379;DHT22;54262;44.642;-0.974;2023-05-14T09:28:48;19.70;99.90
67379;DHT22;54262;44.642;-0.974;2023-05-14T09:31:14;19.90;99.90
67379;DHT22;54262;44.642;-0.974;2023-05-14T09:33:39;19.90;99.90
67379;DHT22;54262;44.642;-0.974;2023-05-14T09:36:05;19.80;99.90
67379;DHT22;54262;44.642;-0.974;2023-05-14T09:38:32;19.30;99.90
67379;DHT22;54262;44.642;-0.974;2023-05-14T09:40:58;19.60;99.90
67379;DHT22;54262;44.642;-0.974;2023-05-14T09:43:25;19.60;99.90
67379;DHT22;54262;44.642;-0.974;2023-05-14T09:45:51;19.90;99.90
67379;DHT22;54262;44.642;-0.974;2023-05-14T09:48:18;19.90;99.90
67379;DHT22;54262;44.642;-0.974;2023-05-14T09:50:46;19.70;99.90
67379;DHT22;54262;44.642;-0.974;2023-05-14T09:53:13;19.90;99.90
67379;DHT22;54262;44.642;-0.974;2023-05-14T09:55:39;20.10;99.90
67379;DHT22;54262;44.642;-0.974;2023-05-14T09:58:04;19.70;99.90
67379;DHT22;54262;44.642;-0.974;2023-05-14T10:00:34;20.00;99.90
67379;DHT22;54262;44.642;-0.974;2023-05-14T10:03:05;19.80;99.90
67379;DHT22;54262;44.642;-0.974;2023-05-14T10:05:35;20.10;99.90
67379;DHT22;54262;44.642;-0.974;2023-05-14T10:08:07;20.10;99.90
67379;DHT22;54262;44.642;-0.974;2023-05-14T10:10:34;19.90;99.90
67379;DHT22;54262;44.642;-0.974;2023-05-14T10:13:08;19.20;99.90
67379;DHT22;54262;44.642;-0.974;2023-05-14T10:15:46;19.80;99.90
67379;DHT22;54262;44.642;-0.974;2023-05-14T10:18:16;19.50;99.90
67379;DHT22;54262;44.642;-0.974;2023-05-14T10:20:45;19.20;99.90
67379;DHT22;54262;44.642;-0.974;2023-05-14T10:23:12;19.90;99.90
67379;DHT22;54262;44.642;-0.974;2023-05-14T10:25:39;20.20;99.90
67379;DHT22;54262;44.642;-0.974;2023-05-14T10:28:05;20.30;99.90
67379;DHT22;54262;44.642;-0.974;2023-05-14T10:30:31;20.50;99.90
67379;DHT22;54262;44.642;-0.974;2023-05-14T10:33:13;20.10;99.90
67379;DHT22;54262;44.642;-0.974;2023-05-14T10:38:34;20.60;99.90
67379;DHT22;54262;44.642;-0.974;2023-05-14T10:41:06;20.50;99.90
67379;DHT22;54262;44.642;-0.974;2023-05-14T10:43:36;20.20;99.90
67379;DHT22;54262;44.642;-0.974;2023-05-14T10:46:03;20.50;99.90
67379;DHT22;54262;44.642;-0.974;2023-05-14T10:48:29;20.70;99.90
67379;DHT22;54262;44.642;-0.974;2023-05-14T10:50:56;20.60;99.90
67379;DHT22;54262;44.642;-0.974;2023-05-14T10:53:40;20.50;99.90
67379;DHT22;54262;44.642;-0.974;2023-05-14T10:56:11;20.40;99.90
67379;DHT22;54262;44.642;-0.974;2023-05-14T10:58:41;20.60;99.90
67379;DHT22;54262;44.642;-0.974;2023-05-14T11:01:09;20.60;99.90
67379;DHT22;54262;44.642;-0.974;2023-05-14T11:03:42;20.90;99.90
67379;DHT22;54262;44.642;-0.974;2023-05-14T11:06:11;21.00;99.90
67379;DHT22;54262;44.642;-0.974;2023-05-14T11:08:38;20.50;99.90
67379;DHT22;54262;44.642;-0.974;2023-05-14T11:11:05;20.70;99.90
67379;DHT22;54262;44.642;-0.974;2023-05-14T11:13:31;20.90;99.90
67379;DHT22;54262;44.642;-0.974;2023-05-14T11:16:00;20.90;99.90
67379;DHT22;54262;44.642;-0.974;2023-05-14T11:18:30;21.10;99.90
67379;DHT22;54262;44.642;-0.974;2023-05-14T11:21:01;21.10;99.90
67379;DHT22;54262;44.642;-0.974;2023-05-14T11:23:27;21.20;99.90
67379;DHT22;54262;44.642;-0.974;2023-05-14T11:25:53;21.30;99.90
67379;DHT22;54262;44.642;-0.974;2023-05-14T11:28:23;21.10;99.20
67379;DHT22;54262;44.642;-0.974;2023-05-14T11:30:52;21.00;99.90
67379;DHT22;54262;44.642;-0.974;2023-05-14T11:33:19;21.10;99.90
67379;DHT22;54262;44.642;-0.974;2023-05-14T11:35:48;21.10;99.90
67379;DHT22;54262;44.642;-0.974;2023-05-14T11:38:18;20.60;99.90
67379;DHT22;54262;44.642;-0.974;2023-05-14T11:40:57;20.90;99.90
67379;DHT22;54262;44.642;-0.974;2023-05-14T11:43:24;20.90;99.90
67379;DHT22;54262;44.642;-0.974;2023-05-14T11:45:53;21.20;99.90
67379;DHT22;54262;44.642;-0.974;2023-05-14T11:48:20;21.00;99.90
67379;DHT22;54262;44.642;-0.974;2023-05-14T11:50:50;21.10;99.90
67379;DHT22;54262;44.642;-0.974;2023-05-14T11:53:24;21.30;99.90
67379;DHT22;54262;44.642;-0.974;2023-05-14T11:55:51;21.10;99.90
67379;DHT22;54262;44.642;-0.974;2023-05-14T11:58:18;21.40;99.90
67379;DHT22;54262;44.642;-0.974;2023-05-14T12:00:44;21.20;99.90
67379;DHT22;54262;44.642;-0.974;2023-05-14T12:03:10;21.20;99.90
67379;DHT22;54262;44.642;-0.974;2023-05-14T12:05:39;21.20;99.90
67379;DHT22;54262;44.642;-0.974;2023-05-14T12:08:26;21.40;99.90
67379;DHT22;54262;44.642;-0.974;2023-05-14T12:10:52;21.40;99.90
67379;DHT22;54262;44.642;-0.974;2023-05-14T12:13:18;21.10;99.90
67379;DHT22;54262;44.642;-0.974;2023-05-14T12:15:54;21.20;99.90
67379;DHT22;54262;44.642;-0.974;2023-05-14T12:18:21;21.20;99.90
67379;DHT22;54262;44.642;-0.974;2023-05-14T12:20:47;21.40;99.90
67379;DHT22;54262;44.642;-0.974;2023-05-14T12:23:13;21.20;99.90
67379;DHT22;54262;44.642;-0.974;2023-05-14T12:25:39;21.20;99.90
67379;DHT22;54262;44.642;-0.974;2023-05-14T12:28:15;20.90;99.90
67379;DHT22;54262;44.642;-0.974;2023-05-14T12:30:41;20.80;99.90
67379;DHT22;54262;44.642;-0.974;2023-05-14T12:33:07;20.80;99.90
67379;DHT22;54262;44.642;-0.974;2023-05-14T12:35:32;21.20;99.90
67379;DHT22;54262;44.642;-0.974;2023-05-14T12:37:58;20.60;99.90
67379;DHT22;54262;44.642;-0.974;2023-05-14T12:40:24;21.00;99.90
67379;DHT22;54262;44.642;-0.974;2023-05-14T12:42:49;20.90;99.90
67379;DHT22;54262;44.642;-0.974;2023-05-14T12:45:15;20.50;99.90
67379;DHT22;54262;44.642;-0.974;2023-05-14T12:47:41;20.70;99.90
67379;DHT22;54262;44.642;-0.974;2023-05-14T12:50:06;21.30;99.90
67379;DHT22;54262;44.642;-0.974;2023-05-14T12:52:32;21.10;99.90
67379;DHT22;54262;44.642;-0.974;2023-05-14T12:54:58;21.20;99.90
67379;DHT22;54262;44.642;-0.974;2023-05-14T12:57:24;20.90;97.70
67379;DHT22;54262;44.642;-0.974;2023-05-14T12:59:49;20.40;99.90
67379;DHT22;54262;44.642;-0.974;2023-05-14T13:02:15;20.70;99.90
67379;DHT22;54262;44.642;-0.974;2023-05-14T13:04:42;21.30;99.90
67379;DHT22;54262;44.642;-0.974;2023-05-14T13:07:10;21.60;99.90
67379;DHT22;54262;44.642;-0.974;2023-05-14T13:09:38;21.50;99.90
67379;DHT22;54262;44.642;-0.974;2023-05-14T13:12:03;21.50;99.90
67379;DHT22;54262;44.642;-0.974;2023-05-14T13:14:29;21.70;99.90
67379;DHT22;54262;44.642;-0.974;2023-05-14T13:16:55;21.30;97.90
67379;DHT22;54262;44.642;-0.974;2023-05-14T13:19:21;21.30;98.40
67379;DHT22;54262;44.642;-0.974;2023-05-14T13:21:46;21.40;99.90
67379;DHT22;54262;44.642;-0.974;2023-05-14T13:24:12;20.90;99.90
67379;DHT22;54262;44.642;-0.974;2023-05-14T13:26:37;21.30;99.90
67379;DHT22;54262;44.642;-0.974;2023-05-14T13:29:03;21.30;99.90
67379;DHT22;54262;44.642;-0.974;2023-05-14T13:31:29;21.20;99.40
67379;DHT22;54262;44.642;-0.974;2023-05-14T13:33:54;21.20;99.90
67379;DHT22;54262;44.642;-0.974;2023-05-14T13:36:22;20.90;99.60
67379;DHT22;54262;44.642;-0.974;2023-05-14T13:38:47;21.20;99.90
67379;DHT22;54262;44.642;-0.974;2023-05-14T13:41:13;21.50;99.90
67379;DHT22;54262;44.642;-0.974;2023-05-14T13:43:39;21.60;99.90
67379;DHT22;54262;44.642;-0.974;2023-05-14T13:46:05;21.60;99.10
67379;DHT22;54262;44.642;-0.974;2023-05-14T13:48:31;21.70;99.90
67379;DHT22;54262;44.642;-0.974;2023-05-14T13:50:58;21.70;99.90
67379;DHT22;54262;44.642;-0.974;2023-05-14T13:53:24;21.30;99.90
67379;DHT22;54262;44.642;-0.974;2023-05-14T13:55:50;21.50;99.90
67379;DHT22;54262;44.642;-0.974;2023-05-14T13:58:24;21.50;99.90
67379;DHT22;54262;44.642;-0.974;2023-05-14T14:00:50;21.60;99.90
67379;DHT22;54262;44.642;-0.974;2023-05-14T14:03:16;21.30;99.90
67379;DHT22;54262;44.642;-0.974;2023-05-14T14:05:42;21.60;99.90
67379;DHT22;54262;44.642;-0.974;2023-05-14T14:08:10;21.60;99.40
67379;DHT22;54262;44.642;-0.974;2023-05-14T14:10:38;21.80;99.90
67379;DHT22;54262;44.642;-0.974;2023-05-14T14:13:05;21.80;99.90
67379;DHT22;54262;44.642;-0.974;2023-05-14T14:15:31;21.90;99.80
67379;DHT22;54262;44.642;-0.974;2023-05-14T14:17:57;21.50;99.90
67379;DHT22;54262;44.642;-0.974;2023-05-14T14:20:22;21.70;99.90
67379;DHT22;54262;44.642;-0.974;2023-05-14T14:22:48;21.20;99.90
67379;DHT22;54262;44.642;-0.974;2023-05-14T14:25:14;20.90;99.90
67379;DHT22;54262;44.642;-0.974;2023-05-14T14:27:39;21.30;99.90
67379;DHT22;54262;44.642;-0.974;2023-05-14T14:30:07;21.60;99.90
67379;DHT22;54262;44.642;-0.974;2023-05-14T14:32:34;20.30;99.90
67379;DHT22;54262;44.642;-0.974;2023-05-14T14:34:59;21.30;99.90
67379;DHT22;54262;44.642;-0.974;2023-05-14T14:37:25;21.20;99.90
67379;DHT22;54262;44.642;-0.974;2023-05-14T14:39:51;21.50;99.90
67379;DHT22;54262;44.642;-0.974;2023-05-14T14:42:17;21.10;99.90
67379;DHT22;54262;44.642;-0.974;2023-05-14T14:44:43;21.30;99.90
67379;DHT22;54262;44.642;-0.974;2023-05-14T14:47:08;21.70;99.90
67379;DHT22;54262;44.642;-0.974;2023-05-14T14:49:34;21.80;99.90
67379;DHT22;54262;44.642;-0.974;2023-05-14T14:52:01;21.60;94.90
67379;DHT22;54262;44.642;-0.974;2023-05-14T14:54:26;21.50;99.90
67379;DHT22;54262;44.642;-0.974;2023-05-14T14:56:52;21.20;99.90
67379;DHT22;54262;44.642;-0.974;2023-05-14T14:59:17;20.80;99.90
67379;DHT22;54262;44.642;-0.974;2023-05-14T15:01:43;20.60;99.90
67379;DHT22;54262;44.642;-0.974;2023-05-14T15:04:09;21.30;99.90
67379;DHT22;54262;44.642;-0.974;2023-05-14T15:06:34;21.50;99.90
67379;DHT22;54262;44.642;-0.974;2023-05-14T15:09:02;21.80;99.90
67379;DHT22;54262;44.642;-0.974;2023-05-14T15:11:31;20.70;99.90
67379;DHT22;54262;44.642;-0.974;2023-05-14T15:13:57;21.30;99.90
67379;DHT22;54262;44.642;-0.974;2023-05-14T15:16:22;21.10;99.90
67379;DHT22;54262;44.642;-0.974;2023-05-14T15:18:48;21.30;97.10
67379;DHT22;54262;44.642;-0.974;2023-05-14T15:21:14;21.50;99.90